Old London, Texas
Current Conditions -  °F | °C
As of 4:35 PM on Wednesday 22 Oct 2014 (Local Time) from KRFI Reporting Station
Clear Clear  
Wind Chill: 78°   Ceiling: Unl
Heat Index: 79°   Visibility: 10mi
Dew Point: 50°   Wind: 5mph
Humidity: 37%   Direction: 60°ENE
Pressure: 30.09"   Gusts: NA
Location:  32.2538°N, 94.9427°W
Report Text: KRFI 222135Z AUTO 06004KT 10SM CLR 26/10 A3009 RMK AO2 T02560099
Loading
Personal Weather Stations






























Interactive Weather Map
Tropical Storm Tracking
New forecast layout! Learn more

10-Day Weather Forecast

Advertisements
Track Severe Weather on mobile